Date,TemperatureHighF,TemperatureAvgF,TemperatureLowF,DewpointHighF,DewpointAvgF,DewpointLowF,HumidityHigh,HumidityAvg,HumidityLow,PressureMaxIn,PressureMinIn,WindSpeedMaxMPH,WindSpeedAvgMPH,GustSpeedMaxMPH,PrecipitationSumIn
2013-1-1,43.2,35.5,28.9,17.0,14.4,12.0,56,43,30,30.41,30.29,10,2,14,0.00
2013-1-2,47.8,38.3,29.8,18.0,14.5,13.0,50,39,28,30.37,30.21,9,2,13,0.00
2013-1-3,49.0,39.2,31.3,14.0,9.3,5.0,41,30,19,30.40,30.26,9,2,15,0.00
2013-1-4,47.5,38.0,30.7,12.0,9.0,6.0,40,30,21,30.41,30.29,5,0,8,0.00
2013-1-5,48.2,39.2,30.8,15.0,10.8,8.0,45,31,23,30.43,30.23,8,0,8,0.00
2013-1-6,50.4,41.7,36.7,21.0,14.5,9.0,45,33,23,30.22,29.98,7,2,10,0.00
2013-1-7,57.4,45.7,36.6,24.0,17.8,12.0,60,36,20,30.13,30.00,14,3,25,0.00
2013-1-8,60.9,49.9,40.3,31.0,24.6,13.0,49,38,29,30.24,30.07,11,2,12,0.00
2013-1-9,57.5,49.7,43.0,33.0,29.3,28.0,60,46,34,30.24,29.85,10,1,13,0.00
2013-1-10,53.2,47.2,36.2,34.0,21.1,5.0,52,36,23,29.87,29.66,19,8,33,0.00
2013-1-11,42.9,35.4,27.7,17.0,10.5,5.0,48,36,25,30.08,29.88,13,3,20,0.00
2013-1-12,39.5,31.9,26.0,11.0,6.2,3.0,46,34,23,30.19,30.07,6,1,10,0.00
2013-1-13,35.0,28.5,21.8,7.0,4.3,1.0,47,36,27,30.29,30.17,16,2,20,0.00
2013-1-14,35.2,28.0,20.6,3.0,0.2,-1.0,40,31,22,30.52,30.30,25,7,32,0.00
2013-1-15,40.9,31.0,21.5,12.0,7.0,1.0,44,37,28,30.65,30.51,7,1,11,0.00
2013-1-16,51.7,40.3,30.0,22.0,18.0,12.0,53,41,30,30.59,30.40,7,2,18,0.00
2013-1-17,55.2,44.5,35.7,19.0,14.8,13.0,41,31,21,30.47,30.32,8,2,10,0.00
2013-1-18,55.0,44.9,35.3,20.0,15.2,13.0,45,31,21,30.39,30.26,8,2,11,0.00
2013-1-19,57.3,46.9,38.4,19.0,13.4,10.0,35,27,19,30.40,30.25,7,1,8,0.00
2013-1-20,59.4,48.1,36.9,20.0,13.5,10.0,34,25,18,30.31,30.18,6,1,9,0.00
2013-1-21,60.1,49.6,40.2,16.0,11.5,8.0,29,22,16,30.31,30.17,9,2,11,0.00
2013-1-22,61.9,50.3,42.0,21.0,13.9,10.0,36,24,18,30.26,30.16,5,1,10,0.00
2013-1-23,60.8,52.9,44.2,24.0,17.8,12.0,33,25,20,30.24,30.13,4,1,8,0.00
2013-1-24,56.4,52.2,49.7,44.0,35.8,19.0,71,56,25,30.24,30.10,8,1,8,0.03
2013-1-25,60.4,53.9,48.6,48.0,42.6,39.0,88,66,51,30.24,30.00,8,2,10,0.07
2013-1-26,58.7,52.3,50.1,53.0,49.2,48.0,94,90,77,30.00,29.80,16,2,16,0.28